Portada
METAR-TAF:

METAR-TAF

Aeroports :

Dyersburg, Tennessee, Estats Units d'Amèrica

latitud: 36-00N, longitud: 089-24W, altitud: 103 m

Observació

L'informe es va fer fa 34 minuts, a les 11:56 UTC
Vent 4 kt del Est
Temperatura 23°C
Humitat 100%
Pressió 1025 hPa
Visibilitat: 16.1 km
Cel clar

METAR: KDYR 201156Z AUTO 09004KT 10SM CLR 23/23 A3027 RMK AO2 SLP254 60001 70002 T02280228 10228 20206 53012

Hora: 07:30 (12:30 UTC)


TAF: manca

Observacions i pronòstics meteorològics de més de 4000 aeroports (METAR i TAF).

Les estacions disponibles són els punts grocs i vermells al mapa.

Posi el ratolí al punt desitjat per veure el nom de l'estació.

Feu clic per veure les observacions i els pronòstics meteorològics.

Per canviar el mapa: feu clic els botons verds amb una creu de color negre per apropar; al botó verd amb un guió per allunyar la imatge; o en les fletxes verdes per a mapes adjacents.


METAR-TAF: